Southfield, Michigan
Current Conditions -  °F | °C
As of 3:38 AM on Sunday 23 Nov 2014 (Local Time) from KVLL Reporting Station
Broken Clouds Broken Clouds  
Wind Chill: 45°   Ceiling: 6500
Heat Index: 48°   Visibility: 10mi
Dew Point: 41°   Wind: 8mph
Humidity: 76%   Direction: 200°SSW
Pressure: 29.95"   Gusts: NA
Location:  42.48°N, 83.24°W
Report Text: KVLL 230838Z AUTO 20007KT 10SM SCT037 BKN065 09/05 A2995 RMK AO2
Loading
Personal Weather Stations






























Interactive Weather Map New forecast layout! Learn more

10-Day Weather Forecast

Advertisements
Track Severe Weather on mobile